Ocean Fresh — WDC4996 — position and weather

sailwx.info

Track history (hours):
 
Tides and Currents Weather Stations Pressure Air Temp Water Temp Dewpoint Dewpoint Depression Visibility Wind Speed Wind Dir Waves Ship Positions

Ocean Fresh

Owner: Ocean Fresh Seafood company, Seattle, WA. More information available from US FCC via Universal Licensing System and Coast Guard Vessel Documentation Center.

Last reported at 2015-Aug-30 18:30 UTC. Time now 2015-Sep-02 19:02 UTC.
Position N 47°40' W 122°23'.

Length 67 m; draft 4.5 m.

Type: Ship (hazmat cat A). MMSI: 367773000.

Date/timePositionNaut miles runAvg speedWind from/ knotsBaromVisibWave heightAir tempDewpointWater temp
2015-Aug-30 18:30N 47°40' W 122°23'0 0.0
2015-Aug-30 17:33N 47°40' W 122°23'0 0.0
2015-Aug-30 16:33N 47°40' W 122°23'2 2.4
2015-Aug-30 15:33N 47°41' W 122°26'3 2.5
2015-Aug-30 14:33N 47°44' W 122°25'6 6.4
2015-Aug-30 13:33N 47°50' W 122°28'8 8.1
2015-Aug-30 12:33N 47°57' W 122°34'11 8.6
2015-Aug-30 11:19N 48°07' W 122°41'810.7
2015-Aug-30 10:32N 48°13' W 122°50'9 9.0
2015-Aug-30 09:31N 48°22' W 122°46'9 8.7
2015-Aug-30 08:28N 48°31' W 122°45'8 9.2
2015-Aug-30 07:33N 48°39' W 122°44'10 8.5
2015-Aug-30 06:22N 48°47' W 122°53'911.4
2015-Aug-30 05:33N 48°52' W 123°05'1211.7
2015-Aug-30 04:33N 48°60' W 123°19'1311.7
2015-Aug-30 03:27N 49°09' W 123°32'1011.4
2015-Aug-30 02:33N 49°16' W 123°43'1211.6
2015-Aug-30 01:33N 49°23' W 123°57'1111.0
2015-Aug-30 00:33N 49°30' W 124°11'1110.7
2015-Aug-29 23:33N 49°35' W 124°25'1111.1
2015-Aug-29 22:32N 49°42' W 124°39'1110.3
2015-Aug-29 21:27N 49°49' W 124°53'1210.7
2015-Aug-29 20:21N 49°57' W 125°06'1213.3
2015-Aug-29 19:28N 50°06' W 125°17'63 8.8
2015-Aug-29 12:19N 50°36' W 126°44'911.0
2015-Aug-29 11:32N 50°42' W 126°54'1111.0
2015-Aug-29 10:33N 50°48' W 127°08'1110.9
2015-Aug-29 09:33N 50°54' W 127°23'1111.0
2015-Aug-29 08:33N 51°01' W 127°36'1111.2
2015-Aug-29 07:33N 51°09' W 127°49'2210.8
2015-Aug-29 05:33N 51°30' W 127°52'485 9.5
2015-Aug-27 02:28N 58°15' W 135°36'1111.7
2015-Aug-27 01:34N 58°19' W 135°55'1010.4
2015-Aug-27 00:34N 58°18' W 136°15'  
Track history (hours):
 
Tides and Currents Weather Stations Pressure Air Temp Water Temp Dewpoint Dewpoint Depression Visibility Wind Speed Wind Dir Waves Ship Positions

Ocean Fresh

Owner: Ocean Fresh Seafood company, Seattle, WA. More information available from US FCC via Universal Licensing System and Coast Guard Vessel Documentation Center.

Last reported at 2015-Aug-30 18:30 UTC. Time now 2015-Sep-02 19:02 UTC.
Position N 47°40' W 122°23'.

Length 67 m; draft 4.5 m.

Type: Ship (hazmat cat A). MMSI: 367773000.

Date/timePositionNaut miles runAvg speedWind from/ knotsBaromVisibWave heightAir tempDewpointWater temp
2015-Aug-30 18:30N 47°40' W 122°23'0 0.0
2015-Aug-30 17:33N 47°40' W 122°23'0 0.0
2015-Aug-30 16:33N 47°40' W 122°23'2 2.4
2015-Aug-30 15:33N 47°41' W 122°26'3 2.5
2015-Aug-30 14:33N 47°44' W 122°25'6 6.4
2015-Aug-30 13:33N 47°50' W 122°28'8 8.1
2015-Aug-30 12:33N 47°57' W 122°34'11 8.6
2015-Aug-30 11:19N 48°07' W 122°41'810.7
2015-Aug-30 10:32N 48°13' W 122°50'9 9.0
2015-Aug-30 09:31N 48°22' W 122°46'9 8.7
2015-Aug-30 08:28N 48°31' W 122°45'8 9.2
2015-Aug-30 07:33N 48°39' W 122°44'10 8.5
2015-Aug-30 06:22N 48°47' W 122°53'911.4
2015-Aug-30 05:33N 48°52' W 123°05'1211.7
2015-Aug-30 04:33N 48°60' W 123°19'1311.7
2015-Aug-30 03:27N 49°09' W 123°32'1011.4
2015-Aug-30 02:33N 49°16' W 123°43'1211.6
2015-Aug-30 01:33N 49°23' W 123°57'1111.0
2015-Aug-30 00:33N 49°30' W 124°11'1110.7
2015-Aug-29 23:33N 49°35' W 124°25'1111.1
2015-Aug-29 22:32N 49°42' W 124°39'1110.3
2015-Aug-29 21:27N 49°49' W 124°53'1210.7
2015-Aug-29 20:21N 49°57' W 125°06'1213.3
2015-Aug-29 19:28N 50°06' W 125°17'63 8.8
2015-Aug-29 12:19N 50°36' W 126°44'911.0
2015-Aug-29 11:32N 50°42' W 126°54'1111.0
2015-Aug-29 10:33N 50°48' W 127°08'1110.9
2015-Aug-29 09:33N 50°54' W 127°23'1111.0
2015-Aug-29 08:33N 51°01' W 127°36'1111.2
2015-Aug-29 07:33N 51°09' W 127°49'2210.8
2015-Aug-29 05:33N 51°30' W 127°52'485 9.5
2015-Aug-27 02:28N 58°15' W 135°36'1111.7
2015-Aug-27 01:34N 58°19' W 135°55'1010.4
2015-Aug-27 00:34N 58°18' W 136°15'  

Dump ship's entire track history